RKPC

Jeju International Airport

Jeju City, South Korea
TAF RKPC 181100Z 1812/1918 34007KT 9999 SCT030 TN13/1820Z TX18/1906Z BECMG 1819/1820 17005KT TEMPO 1822/1902 36006KT BECMG 1903/1904 04007KT BECMG 1911/1912 17005KT
Issued Valid From Valid To
Oct-18 @ 11:00 UTC
(an hour ago)
Oct-18 @ 12:00 UTC
(23 minutes ago)
Oct-19 @ 18:00 UTC
(-1 days ago)
Oct-18 @ 12:00 to Oct-18 @ 19:00
TAF RKPC 181100Z 1812/1918 34007KT 9999 SCT030 TN13/1820Z TX18/1906Z
Wind Visibility Clouds
340° at 7 knots 10,000+ meters
  • Scattered at 3,000' AGL
Becoming Oct-18 @ 19:00 to Oct-19 @ 03:00
BECMG 1819/1820 17005KT
Wind Visibility Clouds
170° at 5 knots 10,000+ meters
  • Scattered at 3,000' AGL
Temporary Oct-18 @ 22:00 to Oct-19 @ 02:00
TEMPO 1822/1902 36006KT
Wind
360° at 6 knots
Becoming Oct-19 @ 03:00 to Oct-19 @ 11:00
BECMG 1903/1904 04007KT
Wind Visibility Clouds
40° at 7 knots 10,000+ meters
  • Scattered at 3,000' AGL
Becoming Oct-19 @ 11:00 to Oct-19 @ 18:00
BECMG 1911/1912 17005KT
Wind Visibility Clouds
170° at 5 knots 10,000+ meters
  • Scattered at 3,000' AGL
TAF RKPC 181100Z 1812/1918 34007KT 9999 SCT030 TN13/1820Z TX18/1906Z BECMG 1819/1820 17005KT TEMPO 1822/1902 36006KT BECMG 1903/1904 04007KT BECMG 1911/1912 17005KT
Issued Oct-18 @ 11:00 UTC
(an hour ago)
Valid From Oct-18 @ 12:00 UTC
(23 minutes ago)
Valid To Oct-19 @ 18:00 UTC
(-1 days ago)
Oct-18 @ 12:00 - Oct-18 @ 19:00
Wind Visibility
340° at 7 knots 10,000+ meters
Clouds
  • Scattered at 3,000' AGL
Becoming Oct-18 @ 19:00 - Oct-19 @ 03:00
Wind Visibility
170° at 5 knots 10,000+ meters
Clouds
  • Scattered at 3,000' AGL
Temporary Oct-18 @ 22:00 - Oct-19 @ 02:00
Wind
360° at 6 knots
Becoming Oct-19 @ 03:00 - Oct-19 @ 11:00
Wind Visibility
40° at 7 knots 10,000+ meters
Clouds
  • Scattered at 3,000' AGL
Becoming Oct-19 @ 11:00 - Oct-19 @ 18:00
Wind Visibility
170° at 5 knots 10,000+ meters
Clouds
  • Scattered at 3,000' AGL